sensor_id;sensor_type;location;lat;lon;timestamp;P1;durP1;ratioP1;P2;durP2;ratioP2
82558;SDS011;72227;42.004;21.364;2024-03-08T00:01:40;1999.90;;;999.90;;
82558;SDS011;72227;42.004;21.364;2024-03-08T00:04:06;1999.90;;;999.90;;
82558;SDS011;72227;42.004;21.364;2024-03-08T00:06:33;1999.90;;;999.90;;
82558;SDS011;72227;42.004;21.364;2024-03-08T00:08:59;1999.90;;;999.90;;
82558;SDS011;72227;42.004;21.364;2024-03-08T00:11:25;1999.90;;;999.90;;
82558;SDS011;72227;42.004;21.364;2024-03-08T00:13:54;1999.90;;;999.90;;
82558;SDS011;72227;42.004;21.364;2024-03-08T00:16:20;1999.90;;;999.90;;
82558;SDS011;72227;42.004;21.364;2024-03-08T00:18:48;1999.90;;;999.90;;
82558;SDS011;72227;42.004;21.364;2024-03-08T00:21:14;1999.90;;;999.90;;
82558;SDS011;72227;42.004;21.364;2024-03-08T00:23:40;1999.90;;;999.90;;
82558;SDS011;72227;42.004;21.364;2024-03-08T00:26:06;1999.90;;;999.90;;
82558;SDS011;72227;42.004;21.364;2024-03-08T00:28:32;1999.90;;;999.90;;
82558;SDS011;72227;42.004;21.364;2024-03-08T00:31:02;1999.90;;;999.90;;
82558;SDS011;72227;42.004;21.364;2024-03-08T00:33:28;1999.90;;;999.90;;
82558;SDS011;72227;42.004;21.364;2024-03-08T00:35:54;1999.90;;;999.90;;
82558;SDS011;72227;42.004;21.364;2024-03-08T00:38:20;1999.90;;;999.90;;
82558;SDS011;72227;42.004;21.364;2024-03-08T00:40:46;1999.90;;;999.90;;
82558;SDS011;72227;42.004;21.364;2024-03-08T00:43:12;1999.90;;;999.90;;
82558;SDS011;72227;42.004;21.364;2024-03-08T00:45:39;1999.90;;;999.90;;
82558;SDS011;72227;42.004;21.364;2024-03-08T00:48:07;1999.90;;;999.90;;
82558;SDS011;72227;42.004;21.364;2024-03-08T00:50:34;1999.90;;;999.90;;
82558;SDS011;72227;42.004;21.364;2024-03-08T00:53:00;1999.90;;;999.90;;
82558;SDS011;72227;42.004;21.364;2024-03-08T00:55:26;1999.90;;;999.90;;
82558;SDS011;72227;42.004;21.364;2024-03-08T00:57:52;1999.90;;;999.90;;
82558;SDS011;72227;42.004;21.364;2024-03-08T01:00:18;1999.90;;;999.90;;
82558;SDS011;72227;42.004;21.364;2024-03-08T01:02:45;1999.90;;;999.90;;
82558;SDS011;72227;42.004;21.364;2024-03-08T01:05:11;1999.90;;;999.90;;
82558;SDS011;72227;42.004;21.364;2024-03-08T01:07:37;1999.90;;;999.90;;
82558;SDS011;72227;42.004;21.364;2024-03-08T01:10:03;1999.90;;;999.90;;
82558;SDS011;72227;42.004;21.364;2024-03-08T01:12:34;1999.90;;;999.90;;
82558;SDS011;72227;42.004;21.364;2024-03-08T01:15:00;1999.90;;;999.90;;
82558;SDS011;72227;42.004;21.364;2024-03-08T01:17:27;1999.90;;;999.90;;
82558;SDS011;72227;42.004;21.364;2024-03-08T01:19:53;1999.90;;;999.90;;
82558;SDS011;72227;42.004;21.364;2024-03-08T01:22:19;1999.90;;;999.90;;
82558;SDS011;72227;42.004;21.364;2024-03-08T01:24:45;1999.90;;;999.90;;
82558;SDS011;72227;42.004;21.364;2024-03-08T01:27:12;1999.90;;;999.90;;
82558;SDS011;72227;42.004;21.364;2024-03-08T01:29:38;1999.90;;;999.90;;
82558;SDS011;72227;42.004;21.364;2024-03-08T01:32:04;1999.90;;;999.90;;
82558;SDS011;72227;42.004;21.364;2024-03-08T01:34:31;1999.90;;;999.90;;
82558;SDS011;72227;42.004;21.364;2024-03-08T01:36:58;1999.90;;;999.90;;
82558;SDS011;72227;42.004;21.364;2024-03-08T01:39:24;1999.90;;;999.90;;
82558;SDS011;72227;42.004;21.364;2024-03-08T01:41:51;1999.90;;;999.90;;
82558;SDS011;72227;42.004;21.364;2024-03-08T01:44:19;1999.90;;;999.90;;
82558;SDS011;72227;42.004;21.364;2024-03-08T01:46:47;1999.90;;;999.90;;
82558;SDS011;72227;42.004;21.364;2024-03-08T01:49:13;1999.90;;;999.90;;
82558;SDS011;72227;42.004;21.364;2024-03-08T01:51:44;1999.90;;;999.90;;
82558;SDS011;72227;42.004;21.364;2024-03-08T01:54:10;1999.90;;;999.90;;
82558;SDS011;72227;42.004;21.364;2024-03-08T01:56:37;1999.90;;;999.90;;
82558;SDS011;72227;42.004;21.364;2024-03-08T01:59:04;1999.90;;;999.90;;
82558;SDS011;72227;42.004;21.364;2024-03-08T02:01:32;1999.90;;;999.90;;
82558;SDS011;72227;42.004;21.364;2024-03-08T02:03:58;1999.90;;;999.90;;
82558;SDS011;72227;42.004;21.364;2024-03-08T02:06:24;1999.90;;;999.90;;
82558;SDS011;72227;42.004;21.364;2024-03-08T02:08:51;1999.90;;;999.90;;
82558;SDS011;72227;42.004;21.364;2024-03-08T02:11:17;1999.90;;;999.90;;
82558;SDS011;72227;42.004;21.364;2024-03-08T02:13:45;1999.90;;;999.90;;
82558;SDS011;72227;42.004;21.364;2024-03-08T02:16:11;1999.90;;;999.90;;
82558;SDS011;72227;42.004;21.364;2024-03-08T02:18:37;1999.90;;;999.90;;
82558;SDS011;72227;42.004;21.364;2024-03-08T02:21:05;1999.90;;;999.90;;
82558;SDS011;72227;42.004;21.364;2024-03-08T02:23:34;1999.90;;;999.90;;
82558;SDS011;72227;42.004;21.364;2024-03-08T02:26:00;1999.90;;;999.90;;
82558;SDS011;72227;42.004;21.364;2024-03-08T02:28:26;1999.90;;;999.90;;
82558;SDS011;72227;42.004;21.364;2024-03-08T02:30:54;1999.90;;;999.90;;
82558;SDS011;72227;42.004;21.364;2024-03-08T02:33:20;1999.90;;;999.90;;
82558;SDS011;72227;42.004;21.364;2024-03-08T02:35:47;1999.90;;;999.90;;
82558;SDS011;72227;42.004;21.364;2024-03-08T02:38:14;1999.90;;;999.90;;
82558;SDS011;72227;42.004;21.364;2024-03-08T02:40:44;1999.90;;;999.90;;
82558;SDS011;72227;42.004;21.364;2024-03-08T02:43:10;1999.90;;;999.90;;
82558;SDS011;72227;42.004;21.364;2024-03-08T02:45:37;1999.90;;;999.90;;
82558;SDS011;72227;42.004;21.364;2024-03-08T02:48:03;1999.90;;;999.90;;
82558;SDS011;72227;42.004;21.364;2024-03-08T02:50:31;1999.90;;;999.90;;
82558;SDS011;72227;42.004;21.364;2024-03-08T02:52:59;1999.90;;;999.90;;
82558;SDS011;72227;42.004;21.364;2024-03-08T02:55:25;1999.90;;;999.90;;
82558;SDS011;72227;42.004;21.364;2024-03-08T02:57:52;1999.90;;;999.90;;
82558;SDS011;72227;42.004;21.364;2024-03-08T03:00:19;1999.90;;;999.90;;
82558;SDS011;72227;42.004;21.364;2024-03-08T03:02:50;1999.90;;;999.90;;
82558;SDS011;72227;42.004;21.364;2024-03-08T03:05:22;1999.90;;;999.90;;
82558;SDS011;72227;42.004;21.364;2024-03-08T03:07:49;1999.90;;;999.90;;
82558;SDS011;72227;42.004;21.364;2024-03-08T03:10:18;1999.90;;;999.90;;
82558;SDS011;72227;42.004;21.364;2024-03-08T03:12:46;1999.90;;;999.90;;
82558;SDS011;72227;42.004;21.364;2024-03-08T03:15:14;1999.90;;;999.90;;
82558;SDS011;72227;42.004;21.364;2024-03-08T03:17:45;1999.90;;;999.90;;
82558;SDS011;72227;42.004;21.364;2024-03-08T03:20:11;1999.90;;;999.90;;
82558;SDS011;72227;42.004;21.364;2024-03-08T03:22:47;1999.90;;;999.90;;
82558;SDS011;72227;42.004;21.364;2024-03-08T03:25:17;1999.90;;;999.90;;
82558;SDS011;72227;42.004;21.364;2024-03-08T03:27:48;1999.90;;;999.90;;
82558;SDS011;72227;42.004;21.364;2024-03-08T03:30:15;1999.90;;;999.90;;
82558;SDS011;72227;42.004;21.364;2024-03-08T03:32:52;1999.90;;;999.90;;
82558;SDS011;72227;42.004;21.364;2024-03-08T03:35:20;1999.90;;;999.90;;
82558;SDS011;72227;42.004;21.364;2024-03-08T03:37:46;1999.90;;;999.90;;
82558;SDS011;72227;42.004;21.364;2024-03-08T03:40:31;1999.90;;;999.90;;
82558;SDS011;72227;42.004;21.364;2024-03-08T03:42:57;1999.90;;;999.90;;
82558;SDS011;72227;42.004;21.364;2024-03-08T03:45:23;1999.90;;;999.90;;
82558;SDS011;72227;42.004;21.364;2024-03-08T03:47:50;1999.90;;;999.90;;
82558;SDS011;72227;42.004;21.364;2024-03-08T03:50:17;1999.90;;;999.90;;
82558;SDS011;72227;42.004;21.364;2024-03-08T03:52:44;1999.90;;;999.90;;
82558;SDS011;72227;42.004;21.364;2024-03-08T03:55:10;1999.90;;;999.90;;
82558;SDS011;72227;42.004;21.364;2024-03-08T03:57:37;1999.90;;;999.90;;
82558;SDS011;72227;42.004;21.364;2024-03-08T04:00:03;1999.90;;;999.90;;
82558;SDS011;72227;42.004;21.364;2024-03-08T04:02:30;1999.90;;;999.90;;
82558;SDS011;72227;42.004;21.364;2024-03-08T04:04:56;1999.90;;;999.90;;
82558;SDS011;72227;42.004;21.364;2024-03-08T04:07:22;1999.90;;;999.90;;
82558;SDS011;72227;42.004;21.364;2024-03-08T04:09:48;1999.90;;;999.90;;
82558;SDS011;72227;42.004;21.364;2024-03-08T04:12:14;1999.90;;;999.90;;
82558;SDS011;72227;42.004;21.364;2024-03-08T04:14:41;1999.90;;;999.90;;
82558;SDS011;72227;42.004;21.364;2024-03-08T04:17:07;1999.90;;;999.90;;
82558;SDS011;72227;42.004;21.364;2024-03-08T04:19:37;1999.90;;;999.90;;
82558;SDS011;72227;42.004;21.364;2024-03-08T04:22:03;1999.90;;;999.90;;
82558;SDS011;72227;42.004;21.364;2024-03-08T04:24:29;1999.90;;;999.90;;
82558;SDS011;72227;42.004;21.364;2024-03-08T04:26:56;1999.90;;;999.90;;
82558;SDS011;72227;42.004;21.364;2024-03-08T04:29:22;1999.90;;;999.90;;
82558;SDS011;72227;42.004;21.364;2024-03-08T04:31:49;1999.90;;;999.90;;
82558;SDS011;72227;42.004;21.364;2024-03-08T04:34:19;1999.90;;;999.90;;
82558;SDS011;72227;42.004;21.364;2024-03-08T04:36:45;1999.90;;;999.90;;
82558;SDS011;72227;42.004;21.364;2024-03-08T04:39:11;1999.90;;;999.90;;
82558;SDS011;72227;42.004;21.364;2024-03-08T04:41:38;1999.90;;;999.90;;
82558;SDS011;72227;42.004;21.364;2024-03-08T04:44:04;1999.90;;;999.90;;
82558;SDS011;72227;42.004;21.364;2024-03-08T04:46:31;1999.90;;;999.90;;
82558;SDS011;72227;42.004;21.364;2024-03-08T04:48:57;1999.90;;;999.90;;
82558;SDS011;72227;42.004;21.364;2024-03-08T04:51:24;1999.90;;;999.90;;
82558;SDS011;72227;42.004;21.364;2024-03-08T04:53:50;1999.90;;;999.90;;
82558;SDS011;72227;42.004;21.364;2024-03-08T04:56:16;1999.90;;;999.90;;
82558;SDS011;72227;42.004;21.364;2024-03-08T04:58:44;1999.90;;;999.90;;
82558;SDS011;72227;42.004;21.364;2024-03-08T05:01:13;1999.90;;;999.90;;
82558;SDS011;72227;42.004;21.364;2024-03-08T05:03:39;1999.90;;;999.90;;
82558;SDS011;72227;42.004;21.364;2024-03-08T05:06:05;1999.90;;;999.90;;
82558;SDS011;72227;42.004;21.364;2024-03-08T05:08:31;1999.90;;;999.90;;
82558;SDS011;72227;42.004;21.364;2024-03-08T05:10:58;1999.90;;;999.90;;
82558;SDS011;72227;42.004;21.364;2024-03-08T05:13:27;1999.90;;;999.90;;
82558;SDS011;72227;42.004;21.364;2024-03-08T05:15:53;1999.90;;;999.90;;
82558;SDS011;72227;42.004;21.364;2024-03-08T05:18:23;1999.90;;;999.90;;
82558;SDS011;72227;42.004;21.364;2024-03-08T05:20:49;1999.90;;;999.90;;
82558;SDS011;72227;42.004;21.364;2024-03-08T05:23:16;1999.90;;;999.90;;
82558;SDS011;72227;42.004;21.364;2024-03-08T05:25:44;1999.90;;;999.90;;
82558;SDS011;72227;42.004;21.364;2024-03-08T05:28:13;1999.90;;;999.90;;
82558;SDS011;72227;42.004;21.364;2024-03-08T05:30:40;1999.90;;;999.90;;
82558;SDS011;72227;42.004;21.364;2024-03-08T05:33:06;1999.90;;;999.90;;
82558;SDS011;72227;42.004;21.364;2024-03-08T05:35:35;1999.90;;;999.90;;
82558;SDS011;72227;42.004;21.364;2024-03-08T05:38:01;1999.90;;;999.90;;
82558;SDS011;72227;42.004;21.364;2024-03-08T05:40:27;1999.90;;;999.90;;
82558;SDS011;72227;42.004;21.364;2024-03-08T05:42:57;1999.90;;;999.90;;
82558;SDS011;72227;42.004;21.364;2024-03-08T05:45:24;1999.90;;;999.90;;
82558;SDS011;72227;42.004;21.364;2024-03-08T05:47:50;1999.90;;;999.90;;
82558;SDS011;72227;42.004;21.364;2024-03-08T05:50:19;1999.90;;;999.90;;
82558;SDS011;72227;42.004;21.364;2024-03-08T05:52:46;1999.90;;;999.90;;
82558;SDS011;72227;42.004;21.364;2024-03-08T05:55:14;1999.90;;;999.90;;
82558;SDS011;72227;42.004;21.364;2024-03-08T05:57:41;1999.90;;;999.90;;
82558;SDS011;72227;42.004;21.364;2024-03-08T06:00:08;1999.90;;;999.90;;
82558;SDS011;72227;42.004;21.364;2024-03-08T06:02:36;1999.90;;;999.90;;
82558;SDS011;72227;42.004;21.364;2024-03-08T06:05:06;1999.90;;;999.90;;
82558;SDS011;72227;42.004;21.364;2024-03-08T06:07:32;1999.90;;;999.90;;
82558;SDS011;72227;42.004;21.364;2024-03-08T06:09:58;1999.90;;;999.90;;
82558;SDS011;72227;42.004;21.364;2024-03-08T06:12:25;1999.90;;;999.90;;
82558;SDS011;72227;42.004;21.364;2024-03-08T06:14:54;1999.90;;;999.90;;
82558;SDS011;72227;42.004;21.364;2024-03-08T06:17:20;1999.90;;;999.90;;
82558;SDS011;72227;42.004;21.364;2024-03-08T06:19:50;1999.90;;;999.90;;
82558;SDS011;72227;42.004;21.364;2024-03-08T06:22:17;1999.90;;;999.90;;
82558;SDS011;72227;42.004;21.364;2024-03-08T06:24:44;1999.90;;;999.90;;
82558;SDS011;72227;42.004;21.364;2024-03-08T06:27:11;1999.90;;;999.90;;
82558;SDS011;72227;42.004;21.364;2024-03-08T06:29:37;1999.90;;;999.90;;
82558;SDS011;72227;42.004;21.364;2024-03-08T06:32:04;1999.90;;;999.90;;
82558;SDS011;72227;42.004;21.364;2024-03-08T06:34:32;1999.90;;;999.90;;
82558;SDS011;72227;42.004;21.364;2024-03-08T06:36:59;1999.90;;;999.90;;
82558;SDS011;72227;42.004;21.364;2024-03-08T06:39:26;1999.90;;;999.90;;
82558;SDS011;72227;42.004;21.364;2024-03-08T06:41:56;1999.90;;;999.90;;
82558;SDS011;72227;42.004;21.364;2024-03-08T06:44:22;1999.90;;;999.90;;
82558;SDS011;72227;42.004;21.364;2024-03-08T06:46:48;1999.90;;;999.90;;
82558;SDS011;72227;42.004;21.364;2024-03-08T06:49:14;1999.90;;;999.90;;
82558;SDS011;72227;42.004;21.364;2024-03-08T06:51:41;1999.90;;;999.90;;
82558;SDS011;72227;42.004;21.364;2024-03-08T06:54:07;1999.90;;;999.90;;
82558;SDS011;72227;42.004;21.364;2024-03-08T06:56:36;1999.90;;;999.90;;
82558;SDS011;72227;42.004;21.364;2024-03-08T06:59:03;1999.90;;;999.90;;
82558;SDS011;72227;42.004;21.364;2024-03-08T07:01:29;1999.90;;;999.90;;
82558;SDS011;72227;42.004;21.364;2024-03-08T07:03:59;1999.90;;;999.90;;
82558;SDS011;72227;42.004;21.364;2024-03-08T07:06:30;1999.90;;;999.90;;
82558;SDS011;72227;42.004;21.364;2024-03-08T07:08:58;1999.90;;;999.90;;
82558;SDS011;72227;42.004;21.364;2024-03-08T07:11:24;1999.90;;;999.90;;
82558;SDS011;72227;42.004;21.364;2024-03-08T07:13:50;1999.90;;;999.90;;
82558;SDS011;72227;42.004;21.364;2024-03-08T07:16:17;1999.90;;;999.90;;
82558;SDS011;72227;42.004;21.364;2024-03-08T07:18:43;1999.90;;;999.90;;
82558;SDS011;72227;42.004;21.364;2024-03-08T07:21:09;1999.90;;;999.90;;
82558;SDS011;72227;42.004;21.364;2024-03-08T07:23:35;1999.90;;;999.90;;
82558;SDS011;72227;42.004;21.364;2024-03-08T07:26:20;1999.90;;;999.90;;
82558;SDS011;72227;42.004;21.364;2024-03-08T07:28:46;1999.90;;;999.90;;
82558;SDS011;72227;42.004;21.364;2024-03-08T07:31:12;1999.90;;;999.90;;
82558;SDS011;72227;42.004;21.364;2024-03-08T07:33:42;1999.90;;;999.90;;
82558;SDS011;72227;42.004;21.364;2024-03-08T07:36:08;1999.90;;;999.90;;
82558;SDS011;72227;42.004;21.364;2024-03-08T07:38:34;1999.90;;;999.90;;
82558;SDS011;72227;42.004;21.364;2024-03-08T07:41:00;1999.90;;;999.90;;
82558;SDS011;72227;42.004;21.364;2024-03-08T07:43:26;1999.90;;;999.90;;
82558;SDS011;72227;42.004;21.364;2024-03-08T07:45:52;1999.90;;;999.90;;
82558;SDS011;72227;42.004;21.364;2024-03-08T07:48:20;1999.90;;;999.90;;
82558;SDS011;72227;42.004;21.364;2024-03-08T07:50:46;1999.90;;;999.90;;
82558;SDS011;72227;42.004;21.364;2024-03-08T07:53:15;1999.90;;;999.90;;
82558;SDS011;72227;42.004;21.364;2024-03-08T07:55:41;1999.90;;;999.90;;
82558;SDS011;72227;42.004;21.364;2024-03-08T07:58:07;1999.90;;;999.90;;
82558;SDS011;72227;42.004;21.364;2024-03-08T08:00:35;1999.90;;;999.90;;
82558;SDS011;72227;42.004;21.364;2024-03-08T08:03:02;1999.90;;;999.90;;
82558;SDS011;72227;42.004;21.364;2024-03-08T08:05:28;1999.90;;;999.90;;
82558;SDS011;72227;42.004;21.364;2024-03-08T08:07:55;1999.90;;;999.90;;
82558;SDS011;72227;42.004;21.364;2024-03-08T08:10:21;1999.90;;;999.90;;
82558;SDS011;72227;42.004;21.364;2024-03-08T08:12:48;1999.90;;;999.90;;
82558;SDS011;72227;42.004;21.364;2024-03-08T08:15:14;1999.90;;;999.90;;
82558;SDS011;72227;42.004;21.364;2024-03-08T08:17:41;1999.90;;;999.90;;
82558;SDS011;72227;42.004;21.364;2024-03-08T08:20:07;1999.90;;;999.90;;
82558;SDS011;72227;42.004;21.364;2024-03-08T08:22:34;1999.90;;;999.90;;
82558;SDS011;72227;42.004;21.364;2024-03-08T08:25:00;1999.90;;;999.90;;
82558;SDS011;72227;42.004;21.364;2024-03-08T08:27:26;1999.90;;;999.90;;
82558;SDS011;72227;42.004;21.364;2024-03-08T08:29:53;1999.90;;;999.90;;
82558;SDS011;72227;42.004;21.364;2024-03-08T08:32:19;413.10;;;397.52;;
82558;SDS011;72227;42.004;21.364;2024-03-08T08:34:45;356.77;;;343.92;;
82558;SDS011;72227;42.004;21.364;2024-03-08T08:37:11;387.95;;;373.67;;
82558;SDS011;72227;42.004;21.364;2024-03-08T08:39:37;341.25;;;329.25;;
82558;SDS011;72227;42.004;21.364;2024-03-08T08:42:03;323.95;;;312.20;;
82558;SDS011;72227;42.004;21.364;2024-03-08T08:44:29;368.08;;;354.77;;
82558;SDS011;72227;42.004;21.364;2024-03-08T08:46:56;376.90;;;363.10;;
82558;SDS011;72227;42.004;21.364;2024-03-08T08:49:23;1999.90;;;999.90;;
82558;SDS011;72227;42.004;21.364;2024-03-08T08:51:51;1999.90;;;999.90;;
82558;SDS011;72227;42.004;21.364;2024-03-08T08:54:17;1999.90;;;999.90;;
82558;SDS011;72227;42.004;21.364;2024-03-08T08:56:43;1999.90;;;999.90;;
82558;SDS011;72227;42.004;21.364;2024-03-08T08:59:10;1999.90;;;999.90;;
82558;SDS011;72227;42.004;21.364;2024-03-08T09:01:39;384.52;;;370.48;;
82558;SDS011;72227;42.004;21.364;2024-03-08T09:04:05;1999.90;;;999.90;;
82558;SDS011;72227;42.004;21.364;2024-03-08T09:06:32;1999.90;;;999.90;;
82558;SDS011;72227;42.004;21.364;2024-03-08T09:08:58;1601.00;;;847.35;;
82558;SDS011;72227;42.004;21.364;2024-03-08T09:11:24;1999.90;;;999.90;;
82558;SDS011;72227;42.004;21.364;2024-03-08T09:13:50;1999.90;;;999.90;;
82558;SDS011;72227;42.004;21.364;2024-03-08T09:16:18;1999.90;;;999.90;;
82558;SDS011;72227;42.004;21.364;2024-03-08T09:18:44;1999.90;;;999.90;;
82558;SDS011;72227;42.004;21.364;2024-03-08T09:21:10;1999.90;;;999.90;;
82558;SDS011;72227;42.004;21.364;2024-03-08T09:23:38;1999.90;;;999.90;;
82558;SDS011;72227;42.004;21.364;2024-03-08T09:26:05;1999.90;;;999.90;;
82558;SDS011;72227;42.004;21.364;2024-03-08T09:28:34;1999.90;;;999.90;;
82558;SDS011;72227;42.004;21.364;2024-03-08T09:31:00;1999.90;;;999.90;;
82558;SDS011;72227;42.004;21.364;2024-03-08T09:33:26;1999.90;;;999.90;;
82558;SDS011;72227;42.004;21.364;2024-03-08T09:35:53;1999.90;;;999.90;;
82558;SDS011;72227;42.004;21.364;2024-03-08T09:38:19;1999.90;;;999.90;;
82558;SDS011;72227;42.004;21.364;2024-03-08T09:40:46;1999.90;;;999.90;;
82558;SDS011;72227;42.004;21.364;2024-03-08T09:43:13;1999.90;;;999.90;;
82558;SDS011;72227;42.004;21.364;2024-03-08T09:45:39;1999.90;;;999.90;;
82558;SDS011;72227;42.004;21.364;2024-03-08T09:48:10;1999.90;;;999.90;;
82558;SDS011;72227;42.004;21.364;2024-03-08T09:50:40;1999.90;;;999.90;;
82558;SDS011;72227;42.004;21.364;2024-03-08T09:53:06;1999.90;;;999.90;;
82558;SDS011;72227;42.004;21.364;2024-03-08T09:55:35;1999.90;;;999.90;;
82558;SDS011;72227;42.004;21.364;2024-03-08T09:58:01;1597.72;;;844.13;;
82558;SDS011;72227;42.004;21.364;2024-03-08T10:00:46;391.20;;;377.05;;
82558;SDS011;72227;42.004;21.364;2024-03-08T10:03:13;369.15;;;356.02;;
82558;SDS011;72227;42.004;21.364;2024-03-08T10:05:42;399.50;;;385.17;;
82558;SDS011;72227;42.004;21.364;2024-03-08T10:08:09;1999.90;;;999.90;;
82558;SDS011;72227;42.004;21.364;2024-03-08T10:10:36;1999.90;;;999.90;;
82558;SDS011;72227;42.004;21.364;2024-03-08T10:13:08;812.53;;;551.13;;
82558;SDS011;72227;42.004;21.364;2024-03-08T10:15:34;396.23;;;382.02;;
82558;SDS011;72227;42.004;21.364;2024-03-08T10:18:01;371.60;;;358.38;;
82558;SDS011;72227;42.004;21.364;2024-03-08T10:20:30;375.40;;;361.98;;
82558;SDS011;72227;42.004;21.364;2024-03-08T10:23:00;360.83;;;348.17;;
82558;SDS011;72227;42.004;21.364;2024-03-08T10:25:28;340.30;;;328.25;;
82558;SDS011;72227;42.004;21.364;2024-03-08T10:27:55;342.48;;;330.48;;
82558;SDS011;72227;42.004;21.364;2024-03-08T10:30:21;334.20;;;322.67;;
82558;SDS011;72227;42.004;21.364;2024-03-08T10:32:48;340.83;;;329.13;;
82558;SDS011;72227;42.004;21.364;2024-03-08T10:35:17;313.13;;;302.10;;
82558;SDS011;72227;42.004;21.364;2024-03-08T10:40:09;346.75;;;334.75;;
82558;SDS011;72227;42.004;21.364;2024-03-08T10:42:40;377.77;;;364.35;;
82558;SDS011;72227;42.004;21.364;2024-03-08T10:47:55;357.20;;;344.67;;
82558;SDS011;72227;42.004;21.364;2024-03-08T10:50:30;355.63;;;343.23;;
82558;SDS011;72227;42.004;21.364;2024-03-08T10:52:59;356.67;;;344.08;;
82558;SDS011;72227;42.004;21.364;2024-03-08T10:55:26;354.17;;;341.80;;
82558;SDS011;72227;42.004;21.364;2024-03-08T10:57:53;337.73;;;326.10;;
82558;SDS011;72227;42.004;21.364;2024-03-08T11:00:20;351.42;;;339.13;;
82558;SDS011;72227;42.004;21.364;2024-03-08T11:02:52;318.17;;;307.25;;
82558;SDS011;72227;42.004;21.364;2024-03-08T11:05:31;252.07;;;243.45;;
82558;SDS011;72227;42.004;21.364;2024-03-08T11:08:03;381.60;;;367.98;;
82558;SDS011;72227;42.004;21.364;2024-03-08T11:10:29;373.35;;;359.98;;
82558;SDS011;72227;42.004;21.364;2024-03-08T11:12:55;377.92;;;364.52;;
82558;SDS011;72227;42.004;21.364;2024-03-08T11:15:23;376.92;;;363.42;;
82558;SDS011;72227;42.004;21.364;2024-03-08T11:17:50;375.77;;;362.35;;
82558;SDS011;72227;42.004;21.364;2024-03-08T11:20:19;373.52;;;360.30;;
82558;SDS011;72227;42.004;21.364;2024-03-08T11:22:52;374.13;;;360.95;;
82558;SDS011;72227;42.004;21.364;2024-03-08T11:25:32;402.13;;;386.08;;
82558;SDS011;72227;42.004;21.364;2024-03-08T11:28:12;356.08;;;343.63;;
82558;SDS011;72227;42.004;21.364;2024-03-08T11:30:45;375.52;;;362.05;;
82558;SDS011;72227;42.004;21.364;2024-03-08T11:33:13;350.83;;;338.33;;
82558;SDS011;72227;42.004;21.364;2024-03-08T11:35:41;362.35;;;349.75;;
82558;SDS011;72227;42.004;21.364;2024-03-08T11:38:10;361.08;;;348.23;;
82558;SDS011;72227;42.004;21.364;2024-03-08T11:40:38;344.98;;;332.17;;
82558;SDS011;72227;42.004;21.364;2024-03-08T11:43:05;396.38;;;382.10;;
82558;SDS011;72227;42.004;21.364;2024-03-08T11:45:33;1591.57;;;838.10;;
82558;SDS011;72227;42.004;21.364;2024-03-08T11:48:01;1999.90;;;999.90;;
82558;SDS011;72227;42.004;21.364;2024-03-08T11:50:28;1999.90;;;999.90;;
82558;SDS011;72227;42.004;21.364;2024-03-08T11:53:04;1999.90;;;999.90;;
82558;SDS011;72227;42.004;21.364;2024-03-08T11:55:33;423.75;;;408.40;;
82558;SDS011;72227;42.004;21.364;2024-03-08T11:58:01;801.40;;;540.47;;
82558;SDS011;72227;42.004;21.364;2024-03-08T12:00:27;1999.90;;;999.90;;
82558;SDS011;72227;42.004;21.364;2024-03-08T12:03:03;1999.90;;;999.90;;
82558;SDS011;72227;42.004;21.364;2024-03-08T12:05:29;385.50;;;371.67;;
82558;SDS011;72227;42.004;21.364;2024-03-08T12:07:57;357.50;;;344.80;;
82558;SDS011;72227;42.004;21.364;2024-03-08T12:10:23;395.52;;;381.02;;
82558;SDS011;72227;42.004;21.364;2024-03-08T12:12:53;394.67;;;380.80;;
82558;SDS011;72227;42.004;21.364;2024-03-08T12:15:20;367.88;;;354.45;;
82558;SDS011;72227;42.004;21.364;2024-03-08T12:17:48;373.17;;;360.08;;
82558;SDS011;72227;42.004;21.364;2024-03-08T12:20:21;371.77;;;358.60;;
82558;SDS011;72227;42.004;21.364;2024-03-08T12:22:48;356.35;;;343.48;;
82558;SDS011;72227;42.004;21.364;2024-03-08T12:25:14;369.85;;;356.90;;
82558;SDS011;72227;42.004;21.364;2024-03-08T12:27:41;359.73;;;347.15;;
82558;SDS011;72227;42.004;21.364;2024-03-08T12:30:17;343.33;;;331.55;;
82558;SDS011;72227;42.004;21.364;2024-03-08T12:35:10;310.90;;;299.75;;
82558;SDS011;72227;42.004;21.364;2024-03-08T12:37:36;316.00;;;305.35;;
82558;SDS011;72227;42.004;21.364;2024-03-08T12:40:04;312.48;;;301.55;;
82558;SDS011;72227;42.004;21.364;2024-03-08T12:42:33;303.70;;;293.38;;
82558;SDS011;72227;42.004;21.364;2024-03-08T12:44:59;318.85;;;307.80;;
82558;SDS011;72227;42.004;21.364;2024-03-08T12:47:26;281.25;;;269.77;;
82558;SDS011;72227;42.004;21.364;2024-03-08T12:49:54;348.42;;;336.42;;
82558;SDS011;72227;42.004;21.364;2024-03-08T12:52:20;323.15;;;312.33;;
82558;SDS011;72227;42.004;21.364;2024-03-08T12:54:46;309.25;;;298.92;;
82558;SDS011;72227;42.004;21.364;2024-03-08T12:57:12;208.50;;;201.30;;
82558;SDS011;72227;42.004;21.364;2024-03-08T12:59:38;236.20;;;227.57;;
82558;SDS011;72227;42.004;21.364;2024-03-08T13:02:07;255.48;;;246.95;;
82558;SDS011;72227;42.004;21.364;2024-03-08T13:04:36;202.23;;;195.20;;
82558;SDS011;72227;42.004;21.364;2024-03-08T13:07:02;190.30;;;183.68;;
82558;SDS011;72227;42.004;21.364;2024-03-08T13:09:29;207.70;;;200.52;;
82558;SDS011;72227;42.004;21.364;2024-03-08T13:11:56;250.18;;;241.13;;
82558;SDS011;72227;42.004;21.364;2024-03-08T13:14:25;325.40;;;314.27;;
82558;SDS011;72227;42.004;21.364;2024-03-08T13:16:51;282.80;;;272.63;;
82558;SDS011;72227;42.004;21.364;2024-03-08T13:19:19;325.88;;;315.00;;
82558;SDS011;72227;42.004;21.364;2024-03-08T13:21:47;324.77;;;313.77;;
82558;SDS011;72227;42.004;21.364;2024-03-08T13:24:16;317.33;;;306.52;;
82558;SDS011;72227;42.004;21.364;2024-03-08T13:26:43;320.38;;;309.50;;
82558;SDS011;72227;42.004;21.364;2024-03-08T13:29:10;308.10;;;297.75;;
82558;SDS011;72227;42.004;21.364;2024-03-08T13:31:36;299.60;;;289.55;;
82558;SDS011;72227;42.004;21.364;2024-03-08T13:34:02;249.40;;;240.90;;
82558;SDS011;72227;42.004;21.364;2024-03-08T13:36:30;262.02;;;253.20;;
82558;SDS011;72227;42.004;21.364;2024-03-08T13:39:04;254.55;;;246.15;;
82558;SDS011;72227;42.004;21.364;2024-03-08T13:41:40;267.33;;;258.33;;
82558;SDS011;72227;42.004;21.364;2024-03-08T13:44:06;253.32;;;244.68;;
82558;SDS011;72227;42.004;21.364;2024-03-08T13:46:33;242.23;;;234.02;;